sensor_id;sensor_type;location;lat;lon;timestamp;P1;durP1;ratioP1;P2;durP2;ratioP2
69953;SDS011;57276;51.364;12.376;2023-01-15T00:00:16;0.90;;;0.20;;
69953;SDS011;57276;51.364;12.376;2023-01-15T00:06:18;1.13;;;0.30;;
69953;SDS011;57276;51.364;12.376;2023-01-15T00:12:20;2.00;;;0.43;;
69953;SDS011;57276;51.364;12.376;2023-01-15T00:18:21;2.67;;;0.40;;
69953;SDS011;57276;51.364;12.376;2023-01-15T00:24:23;1.20;;;0.20;;
69953;SDS011;57276;51.364;12.376;2023-01-15T00:30:43;2.70;;;0.43;;
69953;SDS011;57276;51.364;12.376;2023-01-15T00:36:45;1.98;;;0.50;;
69953;SDS011;57276;51.364;12.376;2023-01-15T00:42:46;1.73;;;0.50;;
69953;SDS011;57276;51.364;12.376;2023-01-15T00:48:55;1.90;;;0.40;;
69953;SDS011;57276;51.364;12.376;2023-01-15T00:54:56;1.63;;;0.40;;
69953;SDS011;57276;51.364;12.376;2023-01-15T01:00:58;2.50;;;0.47;;
69953;SDS011;57276;51.364;12.376;2023-01-15T01:07:01;1.80;;;0.50;;
69953;SDS011;57276;51.364;12.376;2023-01-15T01:13:03;1.80;;;0.40;;
69953;SDS011;57276;51.364;12.376;2023-01-15T01:19:06;2.55;;;0.50;;
69953;SDS011;57276;51.364;12.376;2023-01-15T01:25:09;1.63;;;0.30;;
69953;SDS011;57276;51.364;12.376;2023-01-15T01:31:10;1.43;;;0.40;;
69953;SDS011;57276;51.364;12.376;2023-01-15T01:37:13;1.95;;;0.40;;
69953;SDS011;57276;51.364;12.376;2023-01-15T01:43:19;1.30;;;0.30;;
69953;SDS011;57276;51.364;12.376;2023-01-15T01:49:22;1.40;;;0.30;;
69953;SDS011;57276;51.364;12.376;2023-01-15T01:55:23;1.60;;;0.40;;
69953;SDS011;57276;51.364;12.376;2023-01-15T02:01:27;1.70;;;0.40;;
69953;SDS011;57276;51.364;12.376;2023-01-15T02:07:28;1.63;;;0.30;;
69953;SDS011;57276;51.364;12.376;2023-01-15T02:13:37;3.27;;;0.60;;
69953;SDS011;57276;51.364;12.376;2023-01-15T02:19:44;1.27;;;0.30;;
69953;SDS011;57276;51.364;12.376;2023-01-15T02:26:03;3.00;;;0.40;;
69953;SDS011;57276;51.364;12.376;2023-01-15T02:32:09;1.67;;;0.40;;
69953;SDS011;57276;51.364;12.376;2023-01-15T02:38:14;1.92;;;0.40;;
69953;SDS011;57276;51.364;12.376;2023-01-15T02:44:21;3.10;;;0.50;;
69953;SDS011;57276;51.364;12.376;2023-01-15T02:50:29;1.73;;;0.50;;
69953;SDS011;57276;51.364;12.376;2023-01-15T02:56:32;1.52;;;0.30;;
69953;SDS011;57276;51.364;12.376;2023-01-15T03:02:53;2.13;;;0.30;;
69953;SDS011;57276;51.364;12.376;2023-01-15T03:08:56;1.27;;;0.38;;
69953;SDS011;57276;51.364;12.376;2023-01-15T03:15:02;1.27;;;0.30;;
69953;SDS011;57276;51.364;12.376;2023-01-15T03:21:10;1.85;;;0.40;;
69953;SDS011;57276;51.364;12.376;2023-01-15T03:27:13;2.97;;;0.40;;
69953;SDS011;57276;51.364;12.376;2023-01-15T03:33:19;2.50;;;0.30;;
69953;SDS011;57276;51.364;12.376;2023-01-15T03:39:23;1.65;;;0.30;;
69953;SDS011;57276;51.364;12.376;2023-01-15T03:45:31;1.60;;;0.40;;
69953;SDS011;57276;51.364;12.376;2023-01-15T03:51:36;2.00;;;0.40;;
69953;SDS011;57276;51.364;12.376;2023-01-15T03:57:46;3.28;;;0.63;;
69953;SDS011;57276;51.364;12.376;2023-01-15T04:03:50;2.23;;;0.50;;
69953;SDS011;57276;51.364;12.376;2023-01-15T04:09:56;1.25;;;0.40;;
69953;SDS011;57276;51.364;12.376;2023-01-15T04:15:58;1.53;;;0.40;;
69953;SDS011;57276;51.364;12.376;2023-01-15T04:21:59;3.40;;;0.73;;
69953;SDS011;57276;51.364;12.376;2023-01-15T04:28:01;1.83;;;0.40;;
69953;SDS011;57276;51.364;12.376;2023-01-15T04:34:03;1.30;;;0.30;;
69953;SDS011;57276;51.364;12.376;2023-01-15T04:40:05;1.50;;;0.30;;
69953;SDS011;57276;51.364;12.376;2023-01-15T04:46:06;6.47;;;0.50;;
69953;SDS011;57276;51.364;12.376;2023-01-15T04:52:08;6.00;;;1.33;;
69953;SDS011;57276;51.364;12.376;2023-01-15T04:58:09;5.07;;;1.00;;
69953;SDS011;57276;51.364;12.376;2023-01-15T05:04:11;3.17;;;0.70;;
69953;SDS011;57276;51.364;12.376;2023-01-15T05:10:12;2.85;;;0.73;;
69953;SDS011;57276;51.364;12.376;2023-01-15T05:16:15;2.50;;;0.77;;
69953;SDS011;57276;51.364;12.376;2023-01-15T05:22:17;2.65;;;0.82;;
69953;SDS011;57276;51.364;12.376;2023-01-15T05:28:19;5.47;;;1.10;;
69953;SDS011;57276;51.364;12.376;2023-01-15T05:34:20;6.03;;;1.40;;
69953;SDS011;57276;51.364;12.376;2023-01-15T05:40:21;3.53;;;1.33;;
69953;SDS011;57276;51.364;12.376;2023-01-15T05:46:23;4.10;;;1.00;;
69953;SDS011;57276;51.364;12.376;2023-01-15T05:52:25;2.03;;;0.60;;
69953;SDS011;57276;51.364;12.376;2023-01-15T05:58:26;3.42;;;0.73;;
69953;SDS011;57276;51.364;12.376;2023-01-15T06:04:27;3.30;;;0.60;;
69953;SDS011;57276;51.364;12.376;2023-01-15T06:10:29;4.40;;;0.73;;
69953;SDS011;57276;51.364;12.376;2023-01-15T06:16:31;2.30;;;0.67;;
69953;SDS011;57276;51.364;12.376;2023-01-15T06:22:33;4.15;;;0.77;;
69953;SDS011;57276;51.364;12.376;2023-01-15T06:28:34;3.22;;;0.90;;
69953;SDS011;57276;51.364;12.376;2023-01-15T06:34:36;2.70;;;0.60;;
69953;SDS011;57276;51.364;12.376;2023-01-15T06:40:37;2.45;;;0.63;;
69953;SDS011;57276;51.364;12.376;2023-01-15T06:46:42;2.77;;;0.70;;
69953;SDS011;57276;51.364;12.376;2023-01-15T06:53:03;2.70;;;0.77;;
69953;SDS011;57276;51.364;12.376;2023-01-15T06:59:04;2.13;;;0.52;;
69953;SDS011;57276;51.364;12.376;2023-01-15T07:05:06;4.13;;;0.50;;
69953;SDS011;57276;51.364;12.376;2023-01-15T07:11:08;1.42;;;0.30;;
69953;SDS011;57276;51.364;12.376;2023-01-15T07:17:09;1.40;;;0.30;;
69953;SDS011;57276;51.364;12.376;2023-01-15T07:23:11;1.90;;;0.45;;
69953;SDS011;57276;51.364;12.376;2023-01-15T07:29:12;2.20;;;0.30;;
69953;SDS011;57276;51.364;12.376;2023-01-15T07:35:14;2.70;;;0.37;;
69953;SDS011;57276;51.364;12.376;2023-01-15T07:41:16;1.63;;;0.35;;
69953;SDS011;57276;51.364;12.376;2023-01-15T07:47:35;1.47;;;0.30;;
69953;SDS011;57276;51.364;12.376;2023-01-15T07:53:57;3.15;;;0.40;;
69953;SDS011;57276;51.364;12.376;2023-01-15T07:59:59;1.45;;;0.35;;
69953;SDS011;57276;51.364;12.376;2023-01-15T08:06:00;1.47;;;0.37;;
69953;SDS011;57276;51.364;12.376;2023-01-15T08:12:02;3.80;;;0.50;;
69953;SDS011;57276;51.364;12.376;2023-01-15T08:18:22;1.63;;;0.40;;
69953;SDS011;57276;51.364;12.376;2023-01-15T08:24:24;0.95;;;0.20;;
69953;SDS011;57276;51.364;12.376;2023-01-15T08:30:25;1.55;;;0.35;;
69953;SDS011;57276;51.364;12.376;2023-01-15T08:36:27;1.30;;;0.30;;
69953;SDS011;57276;51.364;12.376;2023-01-15T08:42:28;1.45;;;0.30;;
69953;SDS011;57276;51.364;12.376;2023-01-15T08:48:30;1.10;;;0.30;;
69953;SDS011;57276;51.364;12.376;2023-01-15T08:54:32;1.35;;;0.30;;
69953;SDS011;57276;51.364;12.376;2023-01-15T09:00:34;1.67;;;0.40;;
69953;SDS011;57276;51.364;12.376;2023-01-15T09:06:36;1.47;;;0.40;;
69953;SDS011;57276;51.364;12.376;2023-01-15T09:12:37;1.63;;;0.40;;
69953;SDS011;57276;51.364;12.376;2023-01-15T09:18:39;3.63;;;0.43;;
69953;SDS011;57276;51.364;12.376;2023-01-15T09:24:41;2.22;;;0.35;;
69953;SDS011;57276;51.364;12.376;2023-01-15T09:30:43;1.02;;;0.35;;
69953;SDS011;57276;51.364;12.376;2023-01-15T09:36:44;1.40;;;0.30;;
69953;SDS011;57276;51.364;12.376;2023-01-15T09:42:49;2.75;;;0.40;;
69953;SDS011;57276;51.364;12.376;2023-01-15T09:49:06;1.60;;;0.40;;
69953;SDS011;57276;51.364;12.376;2023-01-15T09:55:16;1.67;;;0.30;;
69953;SDS011;57276;51.364;12.376;2023-01-15T10:01:20;1.48;;;0.30;;
69953;SDS011;57276;51.364;12.376;2023-01-15T10:07:37;1.53;;;0.37;;
69953;SDS011;57276;51.364;12.376;2023-01-15T10:19:49;1.83;;;0.40;;
69953;SDS011;57276;51.364;12.376;2023-01-15T10:25:54;1.73;;;0.40;;
69953;SDS011;57276;51.364;12.376;2023-01-15T10:38:17;0.60;;;0.20;;
69953;SDS011;57276;51.364;12.376;2023-01-15T10:50:51;1.17;;;0.30;;
69953;SDS011;57276;51.364;12.376;2023-01-15T10:56:56;1.27;;;0.30;;
69953;SDS011;57276;51.364;12.376;2023-01-15T11:03:03;2.55;;;0.50;;
69953;SDS011;57276;51.364;12.376;2023-01-15T11:09:15;1.30;;;0.30;;
69953;SDS011;57276;51.364;12.376;2023-01-15T11:15:22;3.45;;;0.50;;
69953;SDS011;57276;51.364;12.376;2023-01-15T11:21:43;2.80;;;0.40;;
69953;SDS011;57276;51.364;12.376;2023-01-15T11:27:47;2.47;;;0.40;;
69953;SDS011;57276;51.364;12.376;2023-01-15T11:33:59;2.33;;;0.40;;
69953;SDS011;57276;51.364;12.376;2023-01-15T11:40:01;1.87;;;0.40;;
69953;SDS011;57276;51.364;12.376;2023-01-15T11:46:29;3.65;;;0.40;;
69953;SDS011;57276;51.364;12.376;2023-01-15T11:52:51;2.80;;;0.43;;
69953;SDS011;57276;51.364;12.376;2023-01-15T11:58:56;1.92;;;0.35;;
69953;SDS011;57276;51.364;12.376;2023-01-15T12:04:58;2.85;;;0.50;;
69953;SDS011;57276;51.364;12.376;2023-01-15T12:17:30;1.20;;;0.30;;
69953;SDS011;57276;51.364;12.376;2023-01-15T12:23:43;2.40;;;0.33;;
69953;SDS011;57276;51.364;12.376;2023-01-15T12:35:56;2.40;;;0.40;;
69953;SDS011;57276;51.364;12.376;2023-01-15T12:42:03;1.23;;;0.20;;
69953;SDS011;57276;51.364;12.376;2023-01-15T12:48:38;1.55;;;0.30;;
69953;SDS011;57276;51.364;12.376;2023-01-15T12:54:46;1.60;;;0.33;;
69953;SDS011;57276;51.364;12.376;2023-01-15T13:00:50;1.17;;;0.22;;
69953;SDS011;57276;51.364;12.376;2023-01-15T13:07:00;1.35;;;0.20;;
69953;SDS011;57276;51.364;12.376;2023-01-15T13:13:14;1.87;;;0.37;;
69953;SDS011;57276;51.364;12.376;2023-01-15T13:37:43;1.30;;;0.30;;
69953;SDS011;57276;51.364;12.376;2023-01-15T13:43:46;1.90;;;0.30;;
69953;SDS011;57276;51.364;12.376;2023-01-15T13:49:55;2.05;;;0.45;;
69953;SDS011;57276;51.364;12.376;2023-01-15T13:56:01;2.83;;;0.30;;
69953;SDS011;57276;51.364;12.376;2023-01-15T14:02:20;3.15;;;0.35;;
69953;SDS011;57276;51.364;12.376;2023-01-15T14:08:25;1.45;;;0.30;;
69953;SDS011;57276;51.364;12.376;2023-01-15T14:20:37;1.15;;;0.30;;
69953;SDS011;57276;51.364;12.376;2023-01-15T14:33:23;2.47;;;0.40;;
69953;SDS011;57276;51.364;12.376;2023-01-15T14:39:30;1.40;;;0.30;;
69953;SDS011;57276;51.364;12.376;2023-01-15T14:51:46;2.25;;;0.40;;
69953;SDS011;57276;51.364;12.376;2023-01-15T15:04:30;2.53;;;0.43;;
69953;SDS011;57276;51.364;12.376;2023-01-15T15:10:35;3.20;;;0.60;;
69953;SDS011;57276;51.364;12.376;2023-01-15T15:16:42;1.93;;;0.30;;
69953;SDS011;57276;51.364;12.376;2023-01-15T15:22:45;3.95;;;0.40;;
69953;SDS011;57276;51.364;12.376;2023-01-15T15:29:02;2.00;;;0.47;;
69953;SDS011;57276;51.364;12.376;2023-01-15T15:35:15;2.17;;;0.35;;
69953;SDS011;57276;51.364;12.376;2023-01-15T15:41:21;2.05;;;0.50;;
69953;SDS011;57276;51.364;12.376;2023-01-15T15:47:43;3.07;;;0.40;;
69953;SDS011;57276;51.364;12.376;2023-01-15T15:54:20;3.90;;;0.60;;
69953;SDS011;57276;51.364;12.376;2023-01-15T16:00:26;2.80;;;0.53;;
69953;SDS011;57276;51.364;12.376;2023-01-15T16:06:29;2.78;;;0.45;;
69953;SDS011;57276;51.364;12.376;2023-01-15T16:12:32;2.42;;;0.65;;
69953;SDS011;57276;51.364;12.376;2023-01-15T16:18:36;3.50;;;0.70;;
69953;SDS011;57276;51.364;12.376;2023-01-15T16:24:51;3.00;;;0.60;;
69953;SDS011;57276;51.364;12.376;2023-01-15T16:30:54;1.90;;;0.50;;
69953;SDS011;57276;51.364;12.376;2023-01-15T16:36:57;2.63;;;0.70;;
69953;SDS011;57276;51.364;12.376;2023-01-15T16:43:07;2.92;;;0.50;;
69953;SDS011;57276;51.364;12.376;2023-01-15T16:55:43;2.17;;;0.60;;
69953;SDS011;57276;51.364;12.376;2023-01-15T17:01:46;3.93;;;0.70;;
69953;SDS011;57276;51.364;12.376;2023-01-15T17:07:49;4.05;;;0.60;;
69953;SDS011;57276;51.364;12.376;2023-01-15T17:14:08;2.08;;;0.45;;
69953;SDS011;57276;51.364;12.376;2023-01-15T17:20:11;4.87;;;0.60;;
69953;SDS011;57276;51.364;12.376;2023-01-15T17:26:20;2.80;;;0.60;;
69953;SDS011;57276;51.364;12.376;2023-01-15T17:32:30;5.60;;;1.10;;
69953;SDS011;57276;51.364;12.376;2023-01-15T17:38:33;3.63;;;0.65;;
69953;SDS011;57276;51.364;12.376;2023-01-15T17:44:35;4.35;;;0.70;;
69953;SDS011;57276;51.364;12.376;2023-01-15T17:50:37;2.33;;;0.50;;
69953;SDS011;57276;51.364;12.376;2023-01-15T17:56:41;3.60;;;0.75;;
69953;SDS011;57276;51.364;12.376;2023-01-15T18:03:02;4.10;;;1.00;;
69953;SDS011;57276;51.364;12.376;2023-01-15T18:09:23;3.53;;;0.90;;
69953;SDS011;57276;51.364;12.376;2023-01-15T18:15:25;5.28;;;1.13;;
69953;SDS011;57276;51.364;12.376;2023-01-15T18:21:27;4.83;;;0.90;;
69953;SDS011;57276;51.364;12.376;2023-01-15T18:27:29;4.40;;;1.20;;
69953;SDS011;57276;51.364;12.376;2023-01-15T18:33:32;3.50;;;0.90;;
69953;SDS011;57276;51.364;12.376;2023-01-15T18:39:34;4.63;;;0.90;;
69953;SDS011;57276;51.364;12.376;2023-01-15T18:45:38;3.42;;;1.00;;
69953;SDS011;57276;51.364;12.376;2023-01-15T18:51:58;5.47;;;1.20;;
69953;SDS011;57276;51.364;12.376;2023-01-15T18:58:19;5.20;;;1.02;;
69953;SDS011;57276;51.364;12.376;2023-01-15T19:04:21;6.67;;;1.80;;
69953;SDS011;57276;51.364;12.376;2023-01-15T19:10:23;3.00;;;0.70;;
69953;SDS011;57276;51.364;12.376;2023-01-15T19:16:25;4.13;;;0.90;;
69953;SDS011;57276;51.364;12.376;2023-01-15T19:22:47;3.90;;;0.90;;
69953;SDS011;57276;51.364;12.376;2023-01-15T19:29:07;3.63;;;1.00;;
69953;SDS011;57276;51.364;12.376;2023-01-15T19:35:09;2.87;;;0.80;;
69953;SDS011;57276;51.364;12.376;2023-01-15T19:41:11;4.65;;;0.90;;
69953;SDS011;57276;51.364;12.376;2023-01-15T19:47:33;3.33;;;0.90;;
69953;SDS011;57276;51.364;12.376;2023-01-15T19:53:54;5.70;;;1.00;;
69953;SDS011;57276;51.364;12.376;2023-01-15T19:59:56;3.88;;;0.80;;
69953;SDS011;57276;51.364;12.376;2023-01-15T20:05:59;2.20;;;0.60;;
69953;SDS011;57276;51.364;12.376;2023-01-15T20:12:01;4.60;;;0.82;;
69953;SDS011;57276;51.364;12.376;2023-01-15T20:18:22;5.47;;;0.82;;
69953;SDS011;57276;51.364;12.376;2023-01-15T20:24:24;4.60;;;0.83;;
69953;SDS011;57276;51.364;12.376;2023-01-15T20:30:26;2.63;;;0.70;;
69953;SDS011;57276;51.364;12.376;2023-01-15T20:36:29;4.43;;;0.80;;
69953;SDS011;57276;51.364;12.376;2023-01-15T20:42:35;2.50;;;0.60;;
69953;SDS011;57276;51.364;12.376;2023-01-15T20:48:56;2.80;;;0.70;;
69953;SDS011;57276;51.364;12.376;2023-01-15T20:55:17;3.30;;;0.60;;
69953;SDS011;57276;51.364;12.376;2023-01-15T21:01:19;2.58;;;0.50;;
69953;SDS011;57276;51.364;12.376;2023-01-15T21:07:22;2.67;;;0.80;;
69953;SDS011;57276;51.364;12.376;2023-01-15T21:13:25;4.60;;;0.82;;
69953;SDS011;57276;51.364;12.376;2023-01-15T21:19:27;3.55;;;0.73;;
69953;SDS011;57276;51.364;12.376;2023-01-15T21:25:29;3.93;;;0.93;;
69953;SDS011;57276;51.364;12.376;2023-01-15T21:31:31;2.35;;;0.50;;
69953;SDS011;57276;51.364;12.376;2023-01-15T21:37:33;4.07;;;0.83;;
69953;SDS011;57276;51.364;12.376;2023-01-15T21:43:35;3.88;;;0.82;;
69953;SDS011;57276;51.364;12.376;2023-01-15T21:49:55;6.25;;;0.82;;
69953;SDS011;57276;51.364;12.376;2023-01-15T21:55:57;2.90;;;0.80;;
69953;SDS011;57276;51.364;12.376;2023-01-15T22:01:59;2.70;;;0.82;;
69953;SDS011;57276;51.364;12.376;2023-01-15T22:08:01;2.67;;;0.73;;
69953;SDS011;57276;51.364;12.376;2023-01-15T22:14:05;3.15;;;0.70;;
69953;SDS011;57276;51.364;12.376;2023-01-15T22:20:06;3.00;;;0.80;;
69953;SDS011;57276;51.364;12.376;2023-01-15T22:26:26;3.17;;;0.77;;
69953;SDS011;57276;51.364;12.376;2023-01-15T22:32:30;5.03;;;0.80;;
69953;SDS011;57276;51.364;12.376;2023-01-15T22:38:32;3.73;;;0.80;;
69953;SDS011;57276;51.364;12.376;2023-01-15T22:44:35;2.10;;;0.50;;
69953;SDS011;57276;51.364;12.376;2023-01-15T22:50:37;2.75;;;0.80;;
69953;SDS011;57276;51.364;12.376;2023-01-15T22:56:38;3.73;;;0.50;;
69953;SDS011;57276;51.364;12.376;2023-01-15T23:02:40;3.20;;;0.70;;
69953;SDS011;57276;51.364;12.376;2023-01-15T23:09:05;3.60;;;0.70;;
69953;SDS011;57276;51.364;12.376;2023-01-15T23:15:07;4.47;;;0.70;;
69953;SDS011;57276;51.364;12.376;2023-01-15T23:21:11;3.47;;;0.60;;
69953;SDS011;57276;51.364;12.376;2023-01-15T23:27:12;4.97;;;0.70;;
69953;SDS011;57276;51.364;12.376;2023-01-15T23:33:14;2.60;;;0.70;;
69953;SDS011;57276;51.364;12.376;2023-01-15T23:39:15;2.77;;;0.73;;
69953;SDS011;57276;51.364;12.376;2023-01-15T23:45:17;2.85;;;0.77;;
69953;SDS011;57276;51.364;12.376;2023-01-15T23:51:37;5.35;;;0.73;;
69953;SDS011;57276;51.364;12.376;2023-01-15T23:57:38;5.10;;;0.83;;
